Time;durP1;ratioP1;P1;durP2;ratioP2;P2;SDS_P1;SDS_P2;PMS_P1;PMS_P2;Temp;Humidity;BMP_temperature;BMP_pressure;BME280_temperature;BME280_humidity;BME280_pressure;Samples;Min_cycle;Max_cycle;Signal;HPM_P1;HPM_P2
2022/01/02 00:00:29;;;;;;;1.30;0.70;;;2.10;1.40;;;3.10;100.00;96053.87;646509;216;31577;-78
2022/01/02 00:03:18;;;;;;;0.60;0.50;;;2.10;1.40;;;3.24;100.00;96055.84;648228;216;31522;-80
2022/01/02 00:06:04;;;;;;;0.50;0.50;;;2.40;1.40;;;3.43;100.00;96045.50;642582;216;31673;-75
2022/01/02 00:08:46;;;;;;;1.20;0.80;;;2.60;1.40;;;3.56;100.00;96036.94;646082;212;31650;-75
2022/01/02 00:11:28;;;;;;;0.40;0.20;;;2.80;1.40;;;3.54;100.00;96037.49;646029;212;31499;-76
2022/01/02 00:14:16;;;;;;;2.50;0.70;;;2.80;1.40;;;3.54;100.00;96028.97;647833;212;31615;-79
2022/01/02 00:17:03;;;;;;;0.60;0.60;;;2.80;1.40;;;3.62;100.00;96025.07;619170;226;32052;-75
2022/01/02 00:19:52;;;;;;;0.60;0.60;;;2.80;1.40;;;3.69;100.00;96019.64;648083;216;31528;-75
2022/01/02 00:22:35;;;;;;;0.80;0.80;;;2.90;1.40;;;3.85;100.00;96020.69;645925;212;31528;-75
2022/01/02 00:25:23;;;;;;;2.05;1.12;;;3.20;1.40;;;3.90;100.00;96025.85;647319;216;32013;-75
2022/01/02 00:27:54;;;;;;;1.23;0.80;;;3.10;1.40;;;3.88;100.00;96025.40;646398;216;43538;-75
2022/01/02 00:30:42;;;;;;;0.40;0.30;;;3.10;1.40;;;3.92;100.00;96025.75;621510;222;42605;-78
2022/01/02 00:35:51;;;;;;;0.40;0.30;;;3.00;1.40;;;3.81;100.00;96017.36;646544;216;31555;-75
2022/01/02 00:38:33;;;;;;;1.50;1.40;;;2.80;1.40;;;3.43;100.00;96020.95;646196;212;32046;-75
2022/01/02 00:41:14;;;;;;;1.00;0.90;;;2.10;1.40;;;3.03;100.00;96015.34;647357;212;32102;-76
2022/01/02 00:44:08;;;;;;;0.43;0.43;;;1.60;1.40;;;2.83;100.00;96021.45;648623;212;31494;-79
2022/01/02 00:46:53;;;;;;;0.40;0.40;;;1.30;1.40;;;2.72;100.00;96014.87;645759;216;31573;-75
2022/01/02 00:49:39;;;;;;;0.52;0.47;;;1.30;1.40;;;2.70;100.00;96012.48;619309;226;31902;-75
2022/01/02 00:52:21;;;;;;;0.40;0.40;;;1.50;1.40;;;2.80;100.00;96007.70;645966;216;31647;-75
2022/01/02 00:55:07;;;;;;;0.90;0.80;;;1.80;1.40;;;2.81;100.00;96010.08;646981;212;32578;-75
2022/01/02 00:57:57;;;;;;;0.90;0.70;;;1.80;1.40;;;2.88;100.00;96006.19;645554;212;31570;-75
2022/01/02 01:00:39;;;;;;;1.50;0.80;;;1.90;1.40;;;2.88;100.00;96008.44;632540;222;32291;-75
2022/01/02 01:03:24;;;;;;;0.82;0.82;;;1.90;1.40;;;2.96;100.00;96011.72;645742;216;31555;-76
2022/01/02 01:06:12;;;;;;;0.43;0.43;;;2.10;1.40;;;3.04;100.00;96012.20;614709;226;32741;-80
2022/01/02 01:08:59;;;;;;;0.52;0.52;;;2.20;1.40;;;3.08;100.00;96013.92;619303;226;31861;-76
2022/01/02 01:11:41;;;;;;;0.70;0.70;;;2.20;1.40;;;2.97;100.00;96013.08;646968;212;31533;-75
2022/01/02 01:14:22;;;;;;;0.90;0.70;;;2.00;1.40;;;2.95;100.00;96011.11;645866;216;31544;-75
2022/01/02 01:17:10;;;;;;;0.90;0.65;;;2.00;1.40;;;2.93;100.00;96014.02;620698;226;31931;-79
2022/01/02 01:20:01;;;;;;;0.90;0.40;;;2.10;1.40;;;3.02;100.00;96025.30;646684;216;31506;-75
2022/01/02 01:22:43;;;;;;;0.50;0.50;;;2.10;1.40;;;3.05;100.00;96023.47;646722;216;31509;-75
2022/01/02 01:27:59;;;;;;;0.57;0.57;;;2.00;1.40;;;2.92;100.00;96023.91;619889;226;31841;-76
2022/01/02 01:30:40;;;;;;;0.45;0.45;;;2.00;1.40;;;2.91;100.00;96029.94;647368;216;31512;-75
2022/01/02 01:35:50;;;;;;;0.80;0.60;;;2.00;1.40;;;2.94;100.00;96022.45;645850;212;32303;-75
2022/01/02 01:38:33;;;;;;;0.40;0.30;;;2.10;1.40;;;2.89;100.00;96021.30;646429;216;32006;-75
2022/01/02 01:41:21;;;;;;;0.70;0.70;;;2.10;1.40;;;2.98;100.00;96011.52;647605;216;31570;-79
2022/01/02 01:44:20;;;;;;;0.60;0.60;;;2.10;1.40;;;3.01;100.00;96014.41;647025;216;31474;-79
2022/01/02 01:46:51;;;;;;;0.50;0.50;;;2.20;1.40;;;3.14;100.00;96008.29;632064;221;31690;-79
2022/01/02 01:49:35;;;;;;;0.40;0.40;;;2.40;1.40;;;3.20;100.00;96007.83;646921;216;31637;-78
2022/01/02 01:52:26;;;;;;;0.90;0.50;;;2.50;1.40;;;3.29;100.00;95998.84;619911;222;31857;-79
2022/01/02 01:55:08;;;;;;;0.80;0.60;;;2.60;1.40;;;3.26;100.00;95991.84;665799;209;31504;-79
2022/01/02 01:57:50;;;;;;;0.70;0.70;;;2.60;1.40;;;3.26;100.00;95984.45;648750;216;31484;-78
2022/01/02 02:00:37;;;;;;;0.60;0.40;;;2.50;1.40;;;3.32;100.00;95987.59;646867;216;31597;-76
2022/01/02 02:03:19;;;;;;;0.40;0.40;;;2.60;1.40;;;3.37;100.00;95985.50;646363;216;31518;-75
2022/01/02 02:06:01;;;;;;;0.40;0.40;;;2.70;1.40;;;3.36;100.00;95979.00;642332;216;31724;-75
2022/01/02 02:08:44;;;;;;;0.55;0.55;;;2.60;1.40;;;3.32;100.00;95970.86;619863;226;31982;-79
2022/01/02 02:11:27;;;;;;;0.60;0.60;;;2.50;1.40;;;3.31;100.00;95972.52;620608;226;32030;-79
2022/01/02 02:14:07;;;;;;;0.80;0.60;;;2.50;1.40;;;3.38;100.00;95977.20;648262;216;31568;-79
2022/01/02 02:16:49;;;;;;;0.40;0.40;;;2.60;1.40;;;3.33;100.00;95978.33;619367;222;31905;-79
2022/01/02 02:19:33;;;;;;;1.90;0.40;;;2.60;1.40;;;3.28;100.00;95978.96;646198;212;31530;-75
2022/01/02 02:22:18;;;;;;;0.40;0.40;;;2.50;1.40;;;3.30;100.00;95969.50;631899;222;31648;-75
2022/01/02 02:24:59;;;;;;;0.57;0.30;;;2.50;1.40;;;3.34;100.00;95973.73;645805;216;31551;-75
2022/01/02 02:28:02;;;;;;;1.12;0.80;;;2.60;1.40;;;3.41;100.00;95966.84;647553;212;32370;-79
2022/01/02 02:30:50;;;;;;;0.50;0.40;;;2.60;1.40;;;3.41;100.00;95955.53;645801;215;31479;-77
2022/01/02 02:36:01;;;;;;;0.50;0.45;;;2.60;1.40;;;3.38;100.00;95945.21;647522;216;31541;-79
2022/01/02 02:38:49;;;;;;;0.68;0.52;;;2.70;1.40;;;3.46;100.00;95945.38;642890;216;31504;-75
2022/01/02 02:41:39;;;;;;;0.50;0.30;;;2.70;1.40;;;3.44;100.00;95946.58;621917;222;31916;-79
2022/01/02 02:44:35;;;;;;;0.75;0.45;;;2.70;1.40;;;3.38;100.00;95936.05;647482;216;31582;-76
2022/01/02 02:50:00;;;;;;;0.40;0.30;;;2.60;1.40;;;3.45;100.00;95914.97;646104;212;31516;-75
2022/01/02 02:52:45;;;;;;;0.70;0.70;;;2.70;1.40;;;3.51;100.00;95907.16;646796;212;36857;-75
2022/01/02 02:55:31;;;;;;;0.40;0.40;;;2.80;1.40;;;3.60;100.00;95910.78;645706;212;31565;-75
2022/01/02 02:58:27;;;;;;;0.40;0.30;;;2.90;1.40;;;3.61;100.00;95913.91;619827;226;31827;-75
2022/01/02 03:00:50;;;;;;;0.50;0.50;;;2.80;1.40;;;3.69;100.00;95915.62;645331;212;31587;-75
2022/01/02 03:03:38;;;;;;;0.82;0.55;;;3.00;1.40;;;3.68;100.00;95919.25;648563;212;32837;-79
2022/01/02 03:06:26;;;;;;;0.70;0.50;;;3.00;1.40;;;3.69;100.00;95923.56;641284;216;31704;-77
2022/01/02 03:09:09;;;;;;;0.70;0.60;;;2.90;1.40;;;3.60;100.00;95923.93;647230;216;32457;-77
2022/01/02 03:11:56;;;;;;;0.93;0.60;;;2.60;1.40;;;3.45;100.00;95916.41;643508;215;31513;-79
2022/01/02 03:14:43;;;;;;;0.40;0.40;;;2.50;1.40;;;3.25;100.00;95909.64;647504;216;32468;-76
2022/01/02 03:17:25;;;;;;;0.60;0.60;;;2.30;1.40;;;3.17;100.00;95908.66;646172;212;31470;-76
2022/01/02 03:20:07;;;;;;;0.50;0.40;;;2.10;1.40;;;3.07;100.00;95904.69;648049;216;31882;-75
2022/01/02 03:22:55;;;;;;;0.95;0.88;;;2.00;1.40;;;2.91;100.00;95899.66;647515;216;31632;-79
2022/01/02 03:25:42;;;;;;;0.50;0.40;;;2.00;1.40;;;2.98;100.00;95893.10;646891;216;31613;-76
2022/01/02 03:28:30;;;;;;;0.40;0.28;;;2.20;1.40;;;3.07;100.00;95890.23;648303;216;31654;-79
2022/01/02 03:31:18;;;;;;;0.40;0.30;;;2.30;1.40;;;3.11;100.00;95898.16;646789;216;39876;-78
2022/01/02 03:35:56;;;;;;;0.70;0.70;;;2.30;1.40;;;3.05;100.00;95903.80;646463;216;31789;-76
2022/01/02 03:38:38;;;;;;;0.60;0.60;;;2.20;1.40;;;3.00;100.00;95901.58;645967;216;42785;-75
2022/01/02 03:41:20;;;;;;;1.20;0.50;;;1.90;1.40;;;2.84;100.00;95902.45;647628;216;31695;-75
2022/01/02 03:44:07;;;;;;;0.73;0.63;;;1.50;1.40;;;2.68;100.00;95889.11;644336;216;33453;-79
2022/01/02 03:46:55;;;;;;;0.60;0.40;;;1.60;1.40;;;2.80;100.00;95883.06;645714;216;31903;-75
2022/01/02 03:49:43;;;;;;;0.40;0.40;;;2.10;1.40;;;3.17;100.00;95883.32;647087;216;31499;-79
2022/01/02 03:52:26;;;;;;;0.43;0.43;;;2.60;1.40;;;3.31;100.00;95874.88;619363;226;31976;-77
2022/01/02 03:55:08;;;;;;;0.40;0.30;;;2.70;1.40;;;3.38;100.00;95874.46;646407;216;31793;-75
2022/01/02 03:57:50;;;;;;;0.45;0.45;;;2.70;1.40;;;3.31;100.00;95869.05;647184;216;42117;-78
2022/01/02 04:00:32;;;;;;;0.50;0.50;;;2.50;1.40;;;3.20;100.00;95868.95;645768;216;31519;-77
2022/01/02 04:03:16;;;;;;;0.43;0.43;;;2.30;1.40;;;3.06;100.00;95864.88;647037;216;31492;-75
2022/01/02 04:05:58;;;;;;;0.40;0.37;;;2.10;1.40;;;2.92;100.00;95863.95;643669;216;31683;-76
2022/01/02 04:08:43;;;;;;;0.60;0.60;;;1.90;1.40;;;2.92;100.00;95867.17;648285;216;31498;-79
2022/01/02 04:11:30;;;;;;;0.90;0.90;;;2.00;1.40;;;2.85;100.00;95864.39;646174;216;31514;-76
2022/01/02 04:14:12;;;;;;;0.90;0.60;;;2.00;1.40;;;2.78;100.00;95865.33;646107;216;31485;-76
2022/01/02 04:17:00;;;;;;;0.40;0.40;;;1.80;1.40;;;2.74;100.00;95860.23;647502;216;31487;-79
2022/01/02 04:19:47;;;;;;;0.50;0.30;;;1.90;1.40;;;2.65;100.00;95861.02;618082;222;31960;-76
2022/01/02 04:22:29;;;;;;;0.60;0.40;;;1.80;1.40;;;2.78;100.00;95860.30;647333;216;31505;-76
2022/01/02 04:25:11;;;;;;;0.80;0.60;;;2.00;1.40;;;2.74;100.00;95860.99;646487;216;31873;-77
2022/01/02 04:27:53;;;;;;;0.60;0.50;;;1.80;1.40;;;2.64;100.00;95851.04;641333;219;35172;-75
2022/01/02 04:30:36;;;;;;;1.10;0.40;;;1.70;1.40;;;2.76;100.00;95845.76;647897;216;31558;-79
2022/01/02 04:35:53;;;;;;;0.60;0.50;;;2.40;1.40;;;3.00;100.00;95829.07;646099;212;31498;-76
2022/01/02 04:38:36;;;;;;;1.00;1.00;;;2.30;1.40;;;3.04;100.00;95828.80;646205;212;31542;-76
2022/01/02 04:41:16;;;;;;;0.40;0.40;;;2.40;1.40;;;3.04;100.00;95831.85;618365;222;31913;-75
2022/01/02 04:43:58;;;;;;;0.50;0.30;;;2.30;1.40;;;2.96;100.00;95831.89;646045;212;31530;-75
2022/01/02 04:46:40;;;;;;;0.70;0.70;;;2.20;1.40;;;2.84;100.00;95829.03;646635;212;31555;-75
2022/01/02 04:49:27;;;;;;;1.60;1.02;;;1.90;1.40;;;2.69;100.00;95822.05;647396;212;31502;-79
2022/01/02 04:52:15;;;;;;;0.55;0.30;;;1.80;1.40;;;2.68;100.00;95824.17;646394;216;31549;-75
2022/01/02 04:54:57;;;;;;;0.70;0.70;;;1.80;1.40;;;2.61;100.00;95831.68;647083;216;31534;-78
2022/01/02 04:57:38;;;;;;;1.00;0.50;;;1.70;1.40;;;2.59;100.00;95823.06;647317;216;31537;-75
2022/01/02 05:00:20;;;;;;;0.60;0.60;;;1.80;1.40;;;2.49;100.00;95816.26;618691;225;31882;-76
2022/01/02 05:03:02;;;;;;;0.80;0.80;;;1.60;1.40;;;2.40;100.00;95817.59;647179;212;31536;-75
2022/01/02 05:05:49;;;;;;;0.50;0.40;;;1.50;1.40;;;2.33;100.00;95817.70;616389;226;32162;-79
2022/01/02 05:08:37;;;;;;;0.70;0.70;;;1.50;1.40;;;2.40;100.00;95817.97;619745;226;31854;-75
2022/01/02 05:13:53;;;;;;;0.60;0.40;;;1.80;1.40;;;2.54;100.00;95813.98;647095;216;31493;-78
2022/01/02 05:16:35;;;;;;;0.82;0.50;;;1.90;1.40;;;2.63;100.00;95806.23;646738;213;31682;-78
2022/01/02 05:19:16;;;;;;;0.50;0.40;;;2.00;1.40;;;2.78;100.00;95806.43;646576;216;32653;-75
2022/01/02 05:21:58;;;;;;;0.43;0.32;;;2.20;1.40;;;2.80;100.00;95797.59;645658;216;31537;-75
2022/01/02 05:24:40;;;;;;;0.50;0.40;;;2.10;1.40;;;2.79;100.00;95797.40;645649;216;31499;-75
2022/01/02 05:27:21;;;;;;;0.50;0.45;;;2.00;1.40;;;2.67;100.00;95794.52;646330;216;31705;-75
2022/01/02 05:30:03;;;;;;;1.10;0.30;;;1.80;1.40;;;2.60;100.00;95800.80;646701;212;31495;-76
2022/01/02 05:32:47;;;;;;;0.40;0.40;;;1.50;1.40;;;2.47;100.00;95799.70;648166;216;31921;-79
2022/01/02 05:35:54;;;;;;;0.80;0.50;;;1.60;1.40;;;2.40;100.00;95806.20;647454;216;42718;-79
2022/01/02 05:38:42;;;;;;;0.40;0.30;;;1.60;1.40;;;2.43;100.00;95804.34;645796;212;32021;-75
2022/01/02 05:41:26;;;;;;;0.40;0.40;;;1.70;1.40;;;2.45;100.00;95795.81;646368;216;31405;-77
2022/01/02 05:44:11;;;;;;;0.50;0.40;;;1.70;1.40;;;2.29;100.00;95794.37;648124;216;32175;-79
2022/01/02 05:46:59;;;;;;;0.60;0.50;;;1.50;1.40;;;2.43;100.00;95791.88;647110;216;31459;-75
2022/01/02 05:49:41;;;;;;;0.60;0.50;;;1.80;1.40;;;2.40;100.00;95788.38;646609;216;31563;-78
2022/01/02 05:52:23;;;;;;;0.50;0.40;;;1.70;1.40;;;2.12;100.00;95785.52;645661;215;31856;-75
2022/01/02 05:55:05;;;;;;;0.80;0.50;;;1.20;1.40;;;2.02;100.00;95784.47;647651;216;42145;-75
2022/01/02 05:57:47;;;;;;;0.50;0.50;;;1.20;1.40;;;2.25;100.00;95780.08;646260;212;31875;-75
2022/01/02 06:00:29;;;;;;;0.50;0.50;;;1.60;1.40;;;2.44;100.00;95774.83;618312;226;32101;-77
2022/01/02 06:03:20;;;;;;;0.80;0.65;;;1.80;1.40;;;2.54;100.00;95776.91;642874;216;31922;-78
2022/01/02 06:06:07;;;;;;;0.80;0.40;;;1.90;1.40;;;2.54;100.00;95771.77;642592;216;32263;-75
2022/01/02 06:08:49;;;;;;;0.40;0.35;;;1.80;1.40;;;2.58;100.00;95769.20;645439;212;42917;-75
2022/01/02 06:11:31;;;;;;;0.40;0.35;;;1.80;1.40;;;2.61;100.00;95765.47;646650;212;32058;-75
2022/01/02 06:14:13;;;;;;;0.40;0.40;;;1.80;1.40;;;2.74;100.00;95769.12;647221;212;33417;-75
2022/01/02 06:16:54;;;;;;;0.57;0.55;;;2.10;1.40;;;2.76;100.00;95771.66;646811;212;31484;-75
2022/01/02 06:22:10;;;;;;;1.00;0.50;;;1.90;1.40;;;2.57;100.00;95770.14;618143;226;31866;-75
2022/01/02 06:24:52;;;;;;;0.40;0.40;;;1.80;1.40;;;2.50;100.00;95765.88;645643;216;31588;-75
2022/01/02 06:27:40;;;;;;;0.40;0.30;;;1.60;1.40;;;2.51;100.00;95768.94;648909;216;31558;-79
2022/01/02 06:30:21;;;;;;;0.90;0.40;;;1.80;1.40;;;2.58;100.00;95772.84;648395;216;31479;-79
2022/01/02 06:35:58;;;;;;;1.00;0.50;;;1.70;1.40;;;2.68;100.00;95772.89;646966;216;31475;-79
2022/01/02 06:38:39;;;;;;;1.10;0.68;;;2.00;1.40;;;2.73;100.00;95770.45;648819;212;31504;-78
2022/01/02 06:41:27;;;;;;;0.40;0.30;;;1.90;1.40;;;2.63;100.00;95771.00;645429;216;31524;-77
2022/01/02 06:44:11;;;;;;;1.80;0.30;;;1.80;1.40;;;2.62;100.00;95767.02;647792;216;31488;-79
2022/01/02 06:49:30;;;;;;;0.40;0.20;;;1.70;1.40;;;2.61;100.00;95765.84;646008;216;31533;-75
2022/01/02 06:52:18;;;;;;;0.40;0.30;;;1.70;1.40;;;2.48;100.00;95763.22;618233;222;31986;-79
2022/01/02 06:55:05;;;;;;;0.50;0.50;;;1.60;1.40;;;2.32;100.00;95766.44;647215;216;31984;-75
2022/01/02 06:57:47;;;;;;;0.80;0.70;;;1.50;1.40;;;2.52;100.00;95767.77;620059;222;31846;-75
2022/01/02 07:03:06;;;;;;;0.40;0.40;;;1.60;1.40;;;2.61;100.00;95775.36;648665;216;31498;-78
2022/01/02 07:05:48;;;;;;;0.98;0.75;;;1.70;1.40;;;2.70;100.00;95775.27;647200;212;32166;-82
2022/01/02 07:08:31;;;;;;;0.80;0.60;;;1.70;1.40;;;2.64;100.00;95774.56;645613;216;31519;-75
2022/01/02 07:11:13;;;;;;;0.60;0.50;;;1.70;1.40;;;2.48;100.00;95775.31;646380;216;31550;-75
2022/01/02 07:13:54;;;;;;;0.80;0.60;;;1.60;1.40;;;2.39;100.00;95768.36;647460;216;31520;-75
2022/01/02 07:16:36;;;;;;;0.60;0.40;;;1.60;1.40;;;2.51;100.00;95761.18;646687;216;31515;-75
2022/01/02 07:19:21;;;;;;;0.50;0.40;;;1.70;1.40;;;2.54;100.00;95765.92;646186;216;42104;-75
2022/01/02 07:22:05;;;;;;;0.60;0.60;;;1.60;1.40;;;2.55;100.00;95765.95;618576;226;31822;-75
2022/01/02 07:24:50;;;;;;;0.50;0.50;;;1.70;1.40;;;2.60;100.00;95764.41;619240;225;31847;-75
2022/01/02 07:27:30;;;;;;;1.10;1.00;;;1.80;1.40;;;2.72;100.00;95762.09;646387;212;31541;-75
2022/01/02 07:30:11;;;;;;;0.70;0.70;;;1.90;1.40;;;2.92;100.00;95770.67;646384;212;31521;-75
2022/01/02 07:33:02;;;;;;;0.40;0.30;;;2.10;1.40;;;3.09;100.00;95770.84;647549;212;31500;-81
2022/01/02 07:35:57;;;;;;;0.40;0.30;;;2.30;1.40;;;3.25;100.00;95763.41;646012;212;31462;-78
2022/01/02 07:38:41;;;;;;;0.40;0.20;;;2.40;1.40;;;3.27;100.00;95760.12;646885;212;32385;-76
2022/01/02 07:41:23;;;;;;;0.40;0.30;;;2.30;1.40;;;3.30;100.00;95753.88;645500;216;31506;-75
2022/01/02 07:44:05;;;;;;;0.50;0.30;;;2.40;1.40;;;3.38;100.00;95748.25;646737;216;31461;-75
2022/01/02 07:46:47;;;;;;;0.50;0.30;;;2.50;1.40;;;3.64;100.00;95743.46;646596;216;31457;-77
2022/01/02 07:49:31;;;;;;;0.50;0.30;;;2.90;1.40;;;3.83;100.00;95740.77;646354;216;31520;-78
2022/01/02 07:52:15;;;;;;;0.40;0.30;;;3.00;1.40;;;4.01;100.00;95739.92;641942;215;31648;-75
2022/01/02 07:54:57;;;;;;;0.50;0.40;;;3.20;1.40;;;4.15;100.00;95740.33;646980;212;31479;-75
2022/01/02 07:57:38;;;;;;;0.40;0.40;;;3.30;1.40;;;4.30;100.00;95731.83;645503;216;31504;-78
2022/01/02 08:00:21;;;;;;;1.10;0.60;;;3.40;1.40;;;4.43;100.00;95729.23;618934;226;31969;-76
2022/01/02 08:03:02;;;;;;;0.70;0.70;;;3.50;1.40;;;4.52;100.00;95730.33;619198;222;31974;-75
2022/01/02 08:05:44;;;;;;;0.85;0.52;;;3.50;1.40;;;4.56;100.00;95735.25;647088;216;31530;-77
2022/01/02 08:08:25;;;;;;;1.20;0.80;;;3.70;1.40;;;4.61;100.00;95733.72;647123;212;31564;-75
2022/01/02 08:11:07;;;;;;;0.50;0.45;;;3.70;1.40;;;4.68;100.00;95737.54;646118;216;31593;-77
2022/01/02 08:13:49;;;;;;;0.50;0.47;;;3.80;1.40;;;4.72;100.00;95736.92;646449;216;31782;-76
2022/01/02 08:16:30;;;;;;;1.35;0.47;;;3.70;1.40;;;4.78;100.00;95742.42;647658;216;31703;-75
2022/01/02 08:19:12;;;;;;;0.40;0.30;;;3.80;1.40;;;4.93;100.00;95737.27;646739;216;32035;-75
2022/01/02 08:21:54;;;;;;;0.60;0.60;;;3.90;1.40;;;5.07;100.00;95733.54;646794;212;31566;-77
2022/01/02 08:24:36;;;;;;;1.50;0.50;;;4.00;1.40;;;5.22;100.00;95731.31;646411;216;31715;-77
2022/01/02 08:27:18;;;;;;;0.40;0.30;;;4.10;1.40;;;5.31;100.00;95729.46;644974;212;31517;-77
2022/01/02 08:29:59;;;;;;;1.90;0.70;;;4.30;1.40;;;5.44;100.00;95733.93;648714;216;31607;-75
2022/01/02 08:32:41;;;;;;;0.93;0.50;;;4.30;1.40;;;5.59;100.00;95731.63;646359;216;31967;-75
2022/01/02 08:35:51;;;;;;;0.98;0.60;;;4.40;1.40;;;5.70;100.00;95726.91;647041;216;31480;-75
2022/01/02 08:38:33;;;;;;;0.80;0.30;;;4.30;1.40;;;5.95;100.00;95720.43;646233;216;31535;-75
2022/01/02 08:41:17;;;;;;;0.80;0.77;;;4.60;1.40;;;6.27;100.00;95720.16;646819;212;31522;-76
2022/01/02 08:43:59;;;;;;;1.00;0.70;;;4.70;1.40;;;6.40;100.00;95723.40;645699;216;42110;-75
2022/01/02 08:46:41;;;;;;;0.40;0.40;;;4.70;1.40;;;6.26;100.00;95725.33;647022;216;42142;-78
2022/01/02 08:49:22;;;;;;;2.05;0.57;;;4.90;1.40;;;6.44;100.00;95725.66;618879;225;31938;-78
2022/01/02 08:52:04;;;;;;;2.30;1.55;;;5.20;1.40;;;6.76;100.00;95716.81;647299;216;42106;-78
2022/01/02 08:54:46;;;;;;;1.43;1.33;;;6.00;1.40;;;7.88;100.00;95709.73;671808;208;31242;-75
2022/01/02 08:57:28;;;;;;;0.60;0.60;;;8.00;1.40;;;9.23;99.32;95708.20;619940;226;31883;-77
2022/01/02 09:00:10;;;;;;;0.80;0.60;;;8.60;1.40;;;10.28;90.92;95701.47;618492;226;32003;-76
2022/01/02 09:02:52;;;;;;;0.60;0.33;;;8.70;1.40;;;10.64;90.34;95705.67;647176;212;31518;-76
2022/01/02 09:05:34;;;;;;;0.80;0.40;;;8.30;1.40;;;9.87;87.09;95692.88;645362;216;31556;-78
2022/01/02 09:08:21;;;;;;;0.50;0.40;;;7.50;1.40;;;9.66;90.68;95683.48;620459;226;42475;-82
2022/01/02 09:11:05;;;;;;;0.70;0.30;;;7.60;1.40;;;9.64;93.40;95686.33;646989;212;42101;-76
2022/01/02 09:13:46;;;;;;;1.00;0.40;;;7.60;1.40;;;9.53;89.50;95689.57;646313;212;31489;-76
2022/01/02 09:16:28;;;;;;;0.70;0.50;;;8.00;1.40;;;9.64;88.18;95693.22;646271;216;42282;-76
2022/01/02 09:19:10;;;;;;;1.07;0.53;;;8.20;1.40;;;9.84;89.40;95697.33;646666;212;31995;-75
2022/01/02 09:21:52;;;;;;;0.70;0.50;;;8.50;1.40;;;10.29;85.04;95693.22;619051;222;32180;-76
2022/01/02 09:24:36;;;;;;;1.30;0.70;;;9.60;1.40;;;11.58;78.73;95687.67;646206;216;31578;-76
2022/01/02 09:27:18;;;;;;;1.10;0.50;;;10.90;1.40;;;13.59;71.05;95686.87;646566;216;37906;-76
2022/01/02 09:30:02;;;;;;;0.90;0.50;;;12.40;1.40;;;15.14;63.36;95680.88;646644;212;31661;-76
2022/01/02 09:32:44;;;;;;;0.80;0.52;;;13.10;1.40;;;15.35;57.80;95685.02;646512;216;31542;-76
2022/01/02 09:35:58;;;;;;;0.77;0.50;;;12.90;1.40;;;17.40;65.98;95684.39;647256;212;31753;-79
2022/01/02 09:38:47;;;;;;;1.10;0.50;;;14.10;1.40;;;20.02;55.87;95682.94;645696;216;31482;-76
2022/01/02 09:41:27;;;;;;;1.10;0.50;;;16.50;1.40;;;20.58;56.23;95685.69;646105;212;42112;-76
2022/01/02 09:44:15;;;;;;;1.00;0.70;;;16.10;1.40;;;19.94;49.82;95684.39;618685;226;32441;-79
2022/01/02 09:47:02;;;;;;;0.85;0.70;;;14.80;1.40;;;21.84;54.71;95685.69;646527;216;31533;-77
2022/01/02 09:49:44;;;;;;;1.00;0.80;;;16.90;1.40;;;22.20;54.12;95683.45;647122;216;31503;-76
2022/01/02 09:52:26;;;;;;;0.70;0.50;;;17.60;1.40;;;23.28;43.12;95679.92;618128;226;31873;-75
2022/01/02 09:55:11;;;;;;;1.40;0.70;;;17.30;1.40;;;23.40;49.76;95679.91;646708;216;32093;-77
2022/01/02 09:57:54;;;;;;;0.70;0.50;;;16.80;1.40;;;24.57;39.61;95670.70;646782;216;31634;-76
2022/01/02 10:00:35;;;;;;;1.00;0.60;;;17.60;1.40;;;24.94;42.18;95668.56;646503;216;42106;-76
2022/01/02 10:03:17;;;;;;;1.30;0.70;;;18.00;1.40;;;24.22;42.65;95670.25;645916;212;31609;-76
2022/01/02 10:05:59;;;;;;;1.40;0.80;;;17.90;1.40;;;24.31;48.30;95661.70;643273;212;31639;-76
2022/01/02 10:08:40;;;;;;;1.08;0.62;;;18.00;1.40;;;26.16;46.47;95658.25;646808;216;31462;-76
2022/01/02 10:11:24;;;;;;;1.20;0.70;;;19.70;1.40;;;27.78;40.54;95653.70;618799;226;31837;-77
2022/01/02 10:14:05;;;;;;;1.00;0.43;;;20.70;1.40;;;28.87;39.44;95651.94;646345;216;31704;-77
2022/01/02 10:16:45;;;;;;;1.10;0.50;;;22.10;1.40;;;28.79;38.00;95652.19;646712;216;31557;-74
2022/01/02 10:19:32;;;;;;;1.30;0.68;;;20.50;1.40;;;29.07;34.49;95648.41;648149;216;42272;-76
2022/01/02 10:22:12;;;;;;;0.80;0.40;;;20.30;1.40;;;29.36;41.27;95649.28;645786;216;31505;-77
2022/01/02 10:24:54;;;;;;;0.60;0.50;;;20.90;1.40;;;27.97;35.50;95647.62;647323;216;31489;-77
2022/01/02 10:27:35;;;;;;;0.77;0.60;;;19.90;1.40;;;25.07;35.55;95647.97;647156;212;31619;-76
2022/01/02 10:30:17;;;;;;;0.82;0.40;;;17.40;1.40;;;22.86;35.75;95653.02;615690;226;31821;-77
2022/01/02 10:32:58;;;;;;;0.70;0.60;;;16.20;1.40;;;21.61;36.52;95652.09;645530;212;42437;-76
2022/01/02 10:35:59;;;;;;;0.40;0.30;;;16.20;1.40;;;21.17;38.52;95656.92;647090;216;31597;-77
2022/01/02 10:38:41;;;;;;;0.90;0.40;;;17.00;1.40;;;23.20;37.00;95648.80;645649;216;31479;-76
2022/01/02 10:41:33;;;;;;;1.20;0.50;;;18.70;1.40;;;25.74;38.90;95640.06;646184;212;31498;-76
2022/01/02 10:44:19;;;;;;;1.20;0.60;;;20.90;1.40;;;26.63;34.32;95633.56;646315;213;31530;-76
2022/01/02 10:47:11;;;;;;;0.50;0.40;;;22.00;1.40;;;23.85;34.04;95635.83;646529;212;31963;-77
2022/01/02 10:50:01;;;;;;;1.20;0.67;;;18.90;1.40;;;23.12;34.67;95637.16;645761;216;32040;-77
2022/01/02 10:52:42;;;;;;;0.70;0.55;;;18.70;1.40;;;23.17;35.58;95633.23;647562;216;31525;-76
2022/01/02 10:55:23;;;;;;;0.68;0.50;;;18.50;1.40;;;24.94;34.85;95618.22;646240;212;31463;-76
2022/01/02 10:58:05;;;;;;;0.70;0.40;;;20.50;1.40;;;24.08;34.33;95614.32;646847;216;32061;-76
2022/01/02 11:00:49;;;;;;;0.52;0.40;;;18.70;1.40;;;22.95;34.91;95621.31;646677;216;31513;-76
2022/01/02 11:03:31;;;;;;;0.70;0.43;;;18.90;1.40;;;22.44;34.71;95633.41;645677;216;31471;-76
2022/01/02 11:06:13;;;;;;;0.80;0.40;;;19.30;1.40;;;21.89;34.70;95624.13;643917;212;31808;-76
2022/01/02 11:08:54;;;;;;;0.62;0.30;;;18.80;1.40;;;22.27;35.85;95620.61;646111;216;31618;-76
2022/01/02 11:11:39;;;;;;;0.75;0.60;;;18.30;1.40;;;20.87;36.01;95622.00;646855;212;31877;-76
2022/01/02 11:14:20;;;;;;;0.65;0.37;;;17.20;1.40;;;21.40;35.21;95615.48;646675;216;31462;-76
2022/01/02 11:17:05;;;;;;;0.70;0.40;;;18.10;1.40;;;21.49;35.87;95609.90;646344;212;31494;-76
2022/01/02 11:19:47;;;;;;;0.50;0.40;;;18.80;1.40;;;20.56;35.64;95611.27;646110;216;31493;-76
2022/01/02 11:22:42;;;;;;;0.50;0.50;;;17.80;1.40;;;20.33;36.16;95617.63;646596;216;31472;-76
2022/01/02 11:25:32;;;;;;;0.90;0.40;;;18.20;1.40;;;19.98;36.43;95614.48;647044;212;31591;-76
2022/01/02 11:28:21;;;;;;;0.50;0.30;;;18.10;1.40;;;20.75;35.96;95615.46;642690;214;31480;-76
2022/01/02 11:31:03;;;;;;;0.90;0.30;;;19.20;1.40;;;20.86;35.32;95623.03;643022;217;42310;-77
2022/01/02 11:35:52;;;;;;;0.52;0.30;;;18.70;1.40;;;21.91;33.97;95608.55;646370;216;42280;-76
2022/01/02 11:38:43;;;;;;;0.50;0.40;;;19.30;1.40;;;22.71;32.70;95594.08;619436;222;32267;-76
2022/01/02 11:41:35;;;;;;;0.60;0.30;;;19.00;1.40;;;20.67;34.74;95592.15;646375;216;31480;-75
2022/01/02 11:44:17;;;;;;;0.65;0.30;;;16.70;1.40;;;18.64;37.10;95593.17;619017;225;31925;-76
2022/01/02 11:46:59;;;;;;;0.50;0.30;;;16.10;1.40;;;18.30;38.18;95598.82;646551;216;31534;-76
2022/01/02 11:49:41;;;;;;;0.70;0.50;;;16.10;1.40;;;17.73;38.85;95584.70;646075;212;31500;-75
2022/01/02 11:52:23;;;;;;;0.40;0.30;;;16.10;1.40;;;18.85;37.86;95580.81;646530;216;42519;-76
2022/01/02 11:55:04;;;;;;;0.70;0.40;;;17.00;1.40;;;18.63;38.75;95574.14;646110;216;32179;-76
2022/01/02 11:57:46;;;;;;;0.40;0.30;;;16.30;1.40;;;18.53;38.67;95568.53;647500;216;33614;-77
2022/01/02 12:00:32;;;;;;;0.50;0.30;;;16.10;1.40;;;18.36;39.47;95570.97;646770;216;42172;-76
2022/01/02 12:03:38;;;;;;;0.45;0.30;;;16.50;1.40;;;19.23;39.39;95565.44;646793;216;32032;-76
2022/01/02 12:06:22;;;;;;;0.95;0.50;;;17.00;1.40;;;18.38;39.87;95567.27;641264;216;31788;-77
2022/01/02 12:09:03;;;;;;;0.62;0.40;;;15.90;1.40;;;18.59;39.79;95569.17;646119;212;31678;-76
2022/01/02 12:11:45;;;;;;;0.50;0.40;;;16.90;1.40;;;18.26;39.82;95571.80;618612;226;33746;-75
2022/01/02 12:14:26;;;;;;;0.70;0.40;;;16.30;1.40;;;18.30;41.23;95571.44;647269;216;31576;-76